sensor_id;sensor_type;location;lat;lon;timestamp;pressure;altitude;pressure_sealevel;temperature
63689;BMP280;54895;40.928;14.480;2023-04-06T00:02:22;101143.25;;;10.47
63689;BMP280;54895;40.928;14.480;2023-04-06T00:04:48;101162.25;;;10.62
63689;BMP280;54895;40.928;14.480;2023-04-06T00:07:15;101153.00;;;10.39
63689;BMP280;54895;40.928;14.480;2023-04-06T00:09:41;101151.38;;;10.30
63689;BMP280;54895;40.928;14.480;2023-04-06T00:12:07;101162.28;;;10.27
63689;BMP280;54895;40.928;14.480;2023-04-06T00:14:33;101147.91;;;10.06
63689;BMP280;54895;40.928;14.480;2023-04-06T00:17:00;101155.88;;;10.41
63689;BMP280;54895;40.928;14.480;2023-04-06T00:19:26;101141.91;;;10.35
63689;BMP280;54895;40.928;14.480;2023-04-06T00:21:53;101157.34;;;10.42
63689;BMP280;54895;40.928;14.480;2023-04-06T00:24:19;101142.44;;;10.28
63689;BMP280;54895;40.928;14.480;2023-04-06T00:26:45;101153.78;;;9.88
63689;BMP280;54895;40.928;14.480;2023-04-06T00:29:12;101165.44;;;10.55
63689;BMP280;54895;40.928;14.480;2023-04-06T00:31:39;101157.03;;;10.16
63689;BMP280;54895;40.928;14.480;2023-04-06T00:34:05;101147.69;;;10.04
63689;BMP280;54895;40.928;14.480;2023-04-06T00:36:32;101154.91;;;10.44
63689;BMP280;54895;40.928;14.480;2023-04-06T00:38:58;101156.06;;;10.48
63689;BMP280;54895;40.928;14.480;2023-04-06T00:41:24;101147.09;;;10.16
63689;BMP280;54895;40.928;14.480;2023-04-06T00:43:51;101150.50;;;10.52
63689;BMP280;54895;40.928;14.480;2023-04-06T00:46:20;101146.16;;;10.49
63689;BMP280;54895;40.928;14.480;2023-04-06T00:48:46;101143.06;;;10.10
63689;BMP280;54895;40.928;14.480;2023-04-06T00:51:13;101136.31;;;10.09
63689;BMP280;54895;40.928;14.480;2023-04-06T00:53:39;101141.41;;;10.42
63689;BMP280;54895;40.928;14.480;2023-04-06T00:56:06;101145.72;;;10.10
63689;BMP280;54895;40.928;14.480;2023-04-06T00:58:44;101144.81;;;10.37
63689;BMP280;54895;40.928;14.480;2023-04-06T01:01:11;101154.69;;;10.42
63689;BMP280;54895;40.928;14.480;2023-04-06T01:03:37;101156.34;;;10.45
63689;BMP280;54895;40.928;14.480;2023-04-06T01:06:04;101155.78;;;10.22
63689;BMP280;54895;40.928;14.480;2023-04-06T01:08:36;101133.69;;;10.03
63689;BMP280;54895;40.928;14.480;2023-04-06T01:11:23;101157.09;;;10.05
63689;BMP280;54895;40.928;14.480;2023-04-06T01:13:52;101155.06;;;10.22
63689;BMP280;54895;40.928;14.480;2023-04-06T01:16:28;101153.06;;;9.93
63689;BMP280;54895;40.928;14.480;2023-04-06T01:19:09;101150.22;;;10.26
63689;BMP280;54895;40.928;14.480;2023-04-06T01:21:37;101155.44;;;10.37
63689;BMP280;54895;40.928;14.480;2023-04-06T01:24:19;101136.25;;;10.14
63689;BMP280;54895;40.928;14.480;2023-04-06T01:27:12;101158.78;;;10.43
63689;BMP280;54895;40.928;14.480;2023-04-06T01:29:59;101141.97;;;10.24
63689;BMP280;54895;40.928;14.480;2023-04-06T01:32:48;101146.81;;;10.25
63689;BMP280;54895;40.928;14.480;2023-04-06T01:35:18;101158.63;;;10.30
63689;BMP280;54895;40.928;14.480;2023-04-06T01:37:55;101139.38;;;10.18
63689;BMP280;54895;40.928;14.480;2023-04-06T01:40:29;101148.09;;;10.13
63689;BMP280;54895;40.928;14.480;2023-04-06T01:42:55;101161.31;;;9.84
63689;BMP280;54895;40.928;14.480;2023-04-06T01:45:30;101167.06;;;9.99
63689;BMP280;54895;40.928;14.480;2023-04-06T01:48:03;101169.50;;;10.32
63689;BMP280;54895;40.928;14.480;2023-04-06T01:50:30;101168.75;;;10.02
63689;BMP280;54895;40.928;14.480;2023-04-06T01:52:56;101173.06;;;10.40
63689;BMP280;54895;40.928;14.480;2023-04-06T01:55:25;101163.25;;;10.24
63689;BMP280;54895;40.928;14.480;2023-04-06T01:58:10;101153.34;;;10.24
63689;BMP280;54895;40.928;14.480;2023-04-06T02:00:39;101167.34;;;10.30
63689;BMP280;54895;40.928;14.480;2023-04-06T02:03:09;101159.44;;;10.14
63689;BMP280;54895;40.928;14.480;2023-04-06T02:05:35;101160.84;;;10.55
63689;BMP280;54895;40.928;14.480;2023-04-06T02:08:13;101152.91;;;10.50
63689;BMP280;54895;40.928;14.480;2023-04-06T02:10:40;101165.97;;;10.48
63689;BMP280;54895;40.928;14.480;2023-04-06T02:13:16;101159.88;;;10.58
63689;BMP280;54895;40.928;14.480;2023-04-06T02:15:48;101143.44;;;10.25
63689;BMP280;54895;40.928;14.480;2023-04-06T02:18:14;101165.44;;;10.55
63689;BMP280;54895;40.928;14.480;2023-04-06T02:20:41;101145.97;;;10.41
63689;BMP280;54895;40.928;14.480;2023-04-06T02:23:07;101143.31;;;10.12
63689;BMP280;54895;40.928;14.480;2023-04-06T02:25:33;101142.16;;;9.96
63689;BMP280;54895;40.928;14.480;2023-04-06T02:28:00;101148.88;;;10.38
63689;BMP280;54895;40.928;14.480;2023-04-06T02:30:29;101154.44;;;10.40
63689;BMP280;54895;40.928;14.480;2023-04-06T02:32:55;101148.50;;;10.58
63689;BMP280;54895;40.928;14.480;2023-04-06T02:35:24;101150.28;;;10.74
63689;BMP280;54895;40.928;14.480;2023-04-06T02:37:54;101153.16;;;10.46
63689;BMP280;54895;40.928;14.480;2023-04-06T02:40:20;101154.00;;;10.36
63689;BMP280;54895;40.928;14.480;2023-04-06T02:42:47;101146.88;;;10.49
63689;BMP280;54895;40.928;14.480;2023-04-06T02:45:16;101152.38;;;10.57
63689;BMP280;54895;40.928;14.480;2023-04-06T02:47:46;101145.88;;;10.23
63689;BMP280;54895;40.928;14.480;2023-04-06T02:50:15;101159.03;;;10.39
63689;BMP280;54895;40.928;14.480;2023-04-06T02:52:52;101156.16;;;10.67
63689;BMP280;54895;40.928;14.480;2023-04-06T02:55:18;101144.63;;;10.59
63689;BMP280;54895;40.928;14.480;2023-04-06T02:57:45;101148.03;;;10.54
63689;BMP280;54895;40.928;14.480;2023-04-06T03:00:12;101142.53;;;10.46
63689;BMP280;54895;40.928;14.480;2023-04-06T03:02:40;101140.75;;;9.90
63689;BMP280;54895;40.928;14.480;2023-04-06T03:05:13;101158.25;;;10.50
63689;BMP280;54895;40.928;14.480;2023-04-06T03:07:45;101153.22;;;10.06
63689;BMP280;54895;40.928;14.480;2023-04-06T03:10:26;101128.94;;;10.26
63689;BMP280;54895;40.928;14.480;2023-04-06T03:12:52;101142.09;;;10.07
63689;BMP280;54895;40.928;14.480;2023-04-06T03:15:37;101154.91;;;10.44
63689;BMP280;54895;40.928;14.480;2023-04-06T03:18:12;101156.25;;;10.21
63689;BMP280;54895;40.928;14.480;2023-04-06T03:20:46;101140.28;;;10.26
63689;BMP280;54895;40.928;14.480;2023-04-06T03:23:15;101156.84;;;10.38
63689;BMP280;54895;40.928;14.480;2023-04-06T03:25:43;101154.00;;;10.36
63689;BMP280;54895;40.928;14.480;2023-04-06T03:28:14;101149.38;;;10.42
63689;BMP280;54895;40.928;14.480;2023-04-06T03:30:52;101159.94;;;10.53
63689;BMP280;54895;40.928;14.480;2023-04-06T03:33:27;101153.47;;;10.43
63689;BMP280;54895;40.928;14.480;2023-04-06T03:35:55;101154.63;;;10.47
63689;BMP280;54895;40.928;14.480;2023-04-06T03:38:24;101141.09;;;10.45
63689;BMP280;54895;40.928;14.480;2023-04-06T03:40:51;101155.88;;;10.41
63689;BMP280;54895;40.928;14.480;2023-04-06T03:43:22;101155.53;;;10.26
63689;BMP280;54895;40.928;14.480;2023-04-06T03:45:48;101158.78;;;10.43
63689;BMP280;54895;40.928;14.480;2023-04-06T03:48:15;101146.75;;;10.31
63689;BMP280;54895;40.928;14.480;2023-04-06T03:50:42;101144.84;;;10.31
63689;BMP280;54895;40.928;14.480;2023-04-06T03:53:09;101160.06;;;10.31
63689;BMP280;54895;40.928;14.480;2023-04-06T03:55:35;101161.00;;;10.39
63689;BMP280;54895;40.928;14.480;2023-04-06T03:58:01;101167.88;;;10.23
63689;BMP280;54895;40.928;14.480;2023-04-06T04:00:28;101148.03;;;10.54
63689;BMP280;54895;40.928;14.480;2023-04-06T04:02:55;101159.34;;;10.36
63689;BMP280;54895;40.928;14.480;2023-04-06T04:05:21;101162.63;;;10.47
63689;BMP280;54895;40.928;14.480;2023-04-06T04:07:52;101170.94;;;10.33
63689;BMP280;54895;40.928;14.480;2023-04-06T04:10:20;101177.63;;;10.45
63689;BMP280;54895;40.928;14.480;2023-04-06T04:12:46;101159.38;;;10.60
63689;BMP280;54895;40.928;14.480;2023-04-06T04:15:12;101175.59;;;10.27
63689;BMP280;54895;40.928;14.480;2023-04-06T04:17:39;101184.94;;;10.39
63689;BMP280;54895;40.928;14.480;2023-04-06T04:20:05;101184.47;;;10.35
63689;BMP280;54895;40.928;14.480;2023-04-06T04:22:32;101180.50;;;10.47
63689;BMP280;54895;40.928;14.480;2023-04-06T04:25:00;101197.75;;;10.70
63689;BMP280;54895;40.928;14.480;2023-04-06T04:27:28;101182.00;;;10.72
63689;BMP280;54895;40.928;14.480;2023-04-06T04:29:54;101181.88;;;10.59
63689;BMP280;54895;40.928;14.480;2023-04-06T04:32:21;101185.28;;;10.54
63689;BMP280;54895;40.928;14.480;2023-04-06T04:34:49;101187.00;;;10.81
63689;BMP280;54895;40.928;14.480;2023-04-06T04:37:30;101194.84;;;10.97
63689;BMP280;54895;40.928;14.480;2023-04-06T04:39:57;101190.47;;;10.76
63689;BMP280;54895;40.928;14.480;2023-04-06T04:42:24;101205.16;;;10.82
63689;BMP280;54895;40.928;14.480;2023-04-06T04:44:53;101197.53;;;10.33
63689;BMP280;54895;40.928;14.480;2023-04-06T04:47:32;101197.53;;;10.68
63689;BMP280;54895;40.928;14.480;2023-04-06T04:49:58;101199.97;;;10.66
63689;BMP280;54895;40.928;14.480;2023-04-06T04:52:25;101204.22;;;10.45
63689;BMP280;54895;40.928;14.480;2023-04-06T04:55:08;101212.06;;;10.32
63689;BMP280;54895;40.928;14.480;2023-04-06T04:57:35;101225.69;;;10.17
63689;BMP280;54895;40.928;14.480;2023-04-06T05:00:04;101224.19;;;10.22
63689;BMP280;54895;40.928;14.480;2023-04-06T05:02:32;101212.19;;;10.10
63689;BMP280;54895;40.928;14.480;2023-04-06T05:05:18;101211.03;;;10.00
63689;BMP280;54895;40.928;14.480;2023-04-06T05:07:45;101233.66;;;10.17
63689;BMP280;54895;40.928;14.480;2023-04-06T05:10:20;101224.88;;;10.33
63689;BMP280;54895;40.928;14.480;2023-04-06T05:12:54;101223.97;;;11.14
63689;BMP280;54895;40.928;14.480;2023-04-06T05:15:20;101235.38;;;11.14
63689;BMP280;54895;40.928;14.480;2023-04-06T05:17:50;101240.56;;;10.72
63689;BMP280;54895;40.928;14.480;2023-04-06T05:20:21;101242.16;;;10.51
63689;BMP280;54895;40.928;14.480;2023-04-06T05:22:50;101240.03;;;10.44
63689;BMP280;54895;40.928;14.480;2023-04-06T05:25:16;101242.97;;;10.70
63689;BMP280;54895;40.928;14.480;2023-04-06T05:27:44;101235.34;;;10.85
63689;BMP280;54895;40.928;14.480;2023-04-06T05:30:37;101242.34;;;10.88
63689;BMP280;54895;40.928;14.480;2023-04-06T05:33:04;101225.31;;;11.02
63689;BMP280;54895;40.928;14.480;2023-04-06T05:35:42;101230.09;;;11.09
63689;BMP280;54895;40.928;14.480;2023-04-06T05:38:12;101240.94;;;11.35
63689;BMP280;54895;40.928;14.480;2023-04-06T05:40:38;101259.72;;;11.48
63689;BMP280;54895;40.928;14.480;2023-04-06T05:43:09;101250.03;;;11.69
63689;BMP280;54895;40.928;14.480;2023-04-06T05:45:39;101261.38;;;11.51
63689;BMP280;54895;40.928;14.480;2023-04-06T05:48:06;101253.25;;;11.38
63689;BMP280;54895;40.928;14.480;2023-04-06T05:50:33;101245.63;;;11.29
63689;BMP280;54895;40.928;14.480;2023-04-06T05:53:00;101249.28;;;11.50
63689;BMP280;54895;40.928;14.480;2023-04-06T05:55:32;101263.44;;;11.82
63689;BMP280;54895;40.928;14.480;2023-04-06T05:58:13;101257.25;;;11.74
63689;BMP280;54895;40.928;14.480;2023-04-06T06:00:39;101254.91;;;11.65
63689;BMP280;54895;40.928;14.480;2023-04-06T06:03:08;101258.63;;;11.80
63689;BMP280;54895;40.928;14.480;2023-04-06T06:05:35;101263.41;;;11.63
63689;BMP280;54895;40.928;14.480;2023-04-06T06:08:24;101258.56;;;11.62
63689;BMP280;54895;40.928;14.480;2023-04-06T06:10:52;101269.34;;;11.75
63689;BMP280;54895;40.928;14.480;2023-04-06T06:13:22;101269.66;;;11.90
63689;BMP280;54895;40.928;14.480;2023-04-06T06:15:50;101272.53;;;11.92
63689;BMP280;54895;40.928;14.480;2023-04-06T06:18:18;101258.19;;;11.95
63689;BMP280;54895;40.928;14.480;2023-04-06T06:20:46;101256.41;;;12.21
63689;BMP280;54895;40.928;14.480;2023-04-06T06:23:12;101275.00;;;12.27
63689;BMP280;54895;40.928;14.480;2023-04-06T06:25:39;101266.19;;;12.13
63689;BMP280;54895;40.928;14.480;2023-04-06T06:28:05;101267.56;;;12.20
63689;BMP280;54895;40.928;14.480;2023-04-06T06:30:32;101266.34;;;12.21
63689;BMP280;54895;40.928;14.480;2023-04-06T06:32:59;101269.06;;;12.34
63689;BMP280;54895;40.928;14.480;2023-04-06T06:35:28;101278.38;;;12.59
63689;BMP280;54895;40.928;14.480;2023-04-06T06:37:54;101262.09;;;12.44
63689;BMP280;54895;40.928;14.480;2023-04-06T06:40:24;101286.31;;;13.09
63689;BMP280;54895;40.928;14.480;2023-04-06T06:42:50;101283.13;;;13.10
63689;BMP280;54895;40.928;14.480;2023-04-06T06:45:46;101282.00;;;13.31
63689;BMP280;54895;40.928;14.480;2023-04-06T06:48:13;101292.31;;;13.27
63689;BMP280;54895;40.928;14.480;2023-04-06T06:50:40;101295.66;;;13.67
63689;BMP280;54895;40.928;14.480;2023-04-06T06:53:06;101289.78;;;13.68
63689;BMP280;54895;40.928;14.480;2023-04-06T06:55:33;101286.75;;;13.38
63689;BMP280;54895;40.928;14.480;2023-04-06T06:58:00;101291.28;;;13.56
63689;BMP280;54895;40.928;14.480;2023-04-06T07:00:26;101286.31;;;13.34
63689;BMP280;54895;40.928;14.480;2023-04-06T07:02:53;101304.63;;;13.69
63689;BMP280;54895;40.928;14.480;2023-04-06T07:05:19;101303.56;;;13.72
63689;BMP280;54895;40.928;14.480;2023-04-06T07:07:46;101297.69;;;14.20
63689;BMP280;54895;40.928;14.480;2023-04-06T07:10:12;101311.22;;;14.15
63689;BMP280;54895;40.928;14.480;2023-04-06T07:12:39;101310.50;;;14.55
63689;BMP280;54895;40.928;14.480;2023-04-06T07:15:06;101314.97;;;14.73
63689;BMP280;54895;40.928;14.480;2023-04-06T07:17:33;101312.72;;;14.23
63689;BMP280;54895;40.928;14.480;2023-04-06T07:20:00;101323.75;;;14.53
63689;BMP280;54895;40.928;14.480;2023-04-06T07:22:26;101316.13;;;14.44
63689;BMP280;54895;40.928;14.480;2023-04-06T07:24:52;101315.03;;;14.19
63689;BMP280;54895;40.928;14.480;2023-04-06T07:27:19;101324.94;;;13.98
63689;BMP280;54895;40.928;14.480;2023-04-06T07:29:45;101310.88;;;14.18
63689;BMP280;54895;40.928;14.480;2023-04-06T07:32:12;101313.63;;;13.92
63689;BMP280;54895;40.928;14.480;2023-04-06T07:34:38;101328.06;;;13.89
63689;BMP280;54895;40.928;14.480;2023-04-06T07:37:05;101302.50;;;14.01
63689;BMP280;54895;40.928;14.480;2023-04-06T07:39:32;101310.94;;;13.92
63689;BMP280;54895;40.928;14.480;2023-04-06T07:41:59;101314.47;;;13.74
63689;BMP280;54895;40.928;14.480;2023-04-06T07:44:26;101333.22;;;13.74
63689;BMP280;54895;40.928;14.480;2023-04-06T07:46:52;101340.84;;;13.57
63689;BMP280;54895;40.928;14.480;2023-04-06T07:49:21;101343.78;;;13.54
63689;BMP280;54895;40.928;14.480;2023-04-06T07:51:49;101332.44;;;12.96
63689;BMP280;54895;40.928;14.480;2023-04-06T07:54:16;101327.94;;;13.04
63689;BMP280;54895;40.928;14.480;2023-04-06T07:56:42;101339.13;;;13.15
63689;BMP280;54895;40.928;14.480;2023-04-06T07:59:08;101335.25;;;13.68
63689;BMP280;54895;40.928;14.480;2023-04-06T08:01:35;101343.50;;;13.83
63689;BMP280;54895;40.928;14.480;2023-04-06T08:04:01;101360.94;;;13.97
63689;BMP280;54895;40.928;14.480;2023-04-06T08:06:28;101344.00;;;13.95
63689;BMP280;54895;40.928;14.480;2023-04-06T08:08:54;101348.19;;;14.03
63689;BMP280;54895;40.928;14.480;2023-04-06T08:11:21;101350.84;;;14.16
63689;BMP280;54895;40.928;14.480;2023-04-06T08:13:47;101353.94;;;14.07
63689;BMP280;54895;40.928;14.480;2023-04-06T08:16:13;101349.66;;;13.78
63689;BMP280;54895;40.928;14.480;2023-04-06T08:18:40;101364.44;;;13.92
63689;BMP280;54895;40.928;14.480;2023-04-06T08:21:06;101366.97;;;14.24
63689;BMP280;54895;40.928;14.480;2023-04-06T08:23:32;101362.25;;;14.50
63689;BMP280;54895;40.928;14.480;2023-04-06T08:25:58;101363.03;;;14.58
63689;BMP280;54895;40.928;14.480;2023-04-06T08:28:25;101358.56;;;14.94
63689;BMP280;54895;40.928;14.480;2023-04-06T08:30:51;101360.75;;;15.03
63689;BMP280;54895;40.928;14.480;2023-04-06T08:33:17;101351.81;;;14.80
63689;BMP280;54895;40.928;14.480;2023-04-06T08:35:44;101358.88;;;14.70
63689;BMP280;54895;40.928;14.480;2023-04-06T08:38:10;101353.94;;;14.41
63689;BMP280;54895;40.928;14.480;2023-04-06T08:40:40;101361.47;;;14.83
63689;BMP280;54895;40.928;14.480;2023-04-06T08:43:09;101357.50;;;14.97
63689;BMP280;54895;40.928;14.480;2023-04-06T08:45:38;101357.03;;;13.98
63689;BMP280;54895;40.928;14.480;2023-04-06T08:48:06;101352.56;;;14.14
63689;BMP280;54895;40.928;14.480;2023-04-06T08:50:33;101378.94;;;14.77
63689;BMP280;54895;40.928;14.480;2023-04-06T08:53:00;101367.28;;;15.15
63689;BMP280;54895;40.928;14.480;2023-04-06T08:55:27;101371.78;;;14.79
63689;BMP280;54895;40.928;14.480;2023-04-06T08:57:54;101370.50;;;14.73
63689;BMP280;54895;40.928;14.480;2023-04-06T09:00:22;101363.66;;;14.64
63689;BMP280;54895;40.928;14.480;2023-04-06T09:02:49;101375.19;;;15.00
63689;BMP280;54895;40.928;14.480;2023-04-06T09:05:18;101386.53;;;15.34
63689;BMP280;54895;40.928;14.480;2023-04-06T09:07:45;101376.28;;;15.25
63689;BMP280;54895;40.928;14.480;2023-04-06T09:10:11;101360.00;;;15.23
63689;BMP280;54895;40.928;14.480;2023-04-06T09:12:37;101385.09;;;15.33
63689;BMP280;54895;40.928;14.480;2023-04-06T09:15:04;101374.91;;;15.11
63689;BMP280;54895;40.928;14.480;2023-04-06T09:17:32;101390.44;;;15.33
63689;BMP280;54895;40.928;14.480;2023-04-06T09:20:01;101396.44;;;15.19
63689;BMP280;54895;40.928;14.480;2023-04-06T09:22:38;101386.22;;;15.45
63689;BMP280;54895;40.928;14.480;2023-04-06T09:25:05;101383.44;;;15.58
63689;BMP280;54895;40.928;14.480;2023-04-06T09:27:36;101388.63;;;15.99
63689;BMP280;54895;40.928;14.480;2023-04-06T09:32:30;101401.06;;;16.17
63689;BMP280;54895;40.928;14.480;2023-04-06T09:35:09;101396.31;;;16.68
63689;BMP280;54895;40.928;14.480;2023-04-06T09:37:36;101405.81;;;16.91
63689;BMP280;54895;40.928;14.480;2023-04-06T09:40:06;101417.47;;;16.94
63689;BMP280;54895;40.928;14.480;2023-04-06T09:42:34;101413.09;;;17.51
63689;BMP280;54895;40.928;14.480;2023-04-06T09:45:03;101410.88;;;17.64
63689;BMP280;54895;40.928;14.480;2023-04-06T09:47:33;101386.81;;;17.74
63689;BMP280;54895;40.928;14.480;2023-04-06T09:50:02;101392.72;;;16.58
63689;BMP280;54895;40.928;14.480;2023-04-06T09:52:33;101390.91;;;16.53
63689;BMP280;54895;40.928;14.480;2023-04-06T09:55:05;101402.38;;;17.28
63689;BMP280;54895;40.928;14.480;2023-04-06T09:57:34;101395.16;;;17.46
63689;BMP280;54895;40.928;14.480;2023-04-06T10:00:06;101395.13;;;17.93
63689;BMP280;54895;40.928;14.480;2023-04-06T10:07:53;101403.88;;;18.08
63689;BMP280;54895;40.928;14.480;2023-04-06T10:10:20;101416.84;;;18.02
63689;BMP280;54895;40.928;14.480;2023-04-06T10:12:47;101415.28;;;18.24
63689;BMP280;54895;40.928;14.480;2023-04-06T10:15:14;101401.66;;;16.53
63689;BMP280;54895;40.928;14.480;2023-04-06T10:17:40;101404.88;;;16.59
63689;BMP280;54895;40.928;14.480;2023-04-06T10:20:10;101411.88;;;17.37
63689;BMP280;54895;40.928;14.480;2023-04-06T10:22:52;101420.31;;;18.20
63689;BMP280;54895;40.928;14.480;2023-04-06T10:25:29;101415.25;;;18.73
63689;BMP280;54895;40.928;14.480;2023-04-06T10:28:07;101409.13;;;19.13
63689;BMP280;54895;40.928;14.480;2023-04-06T10:30:34;101407.03;;;18.71
63689;BMP280;54895;40.928;14.480;2023-04-06T10:33:12;101412.19;;;17.48
63689;BMP280;54895;40.928;14.480;2023-04-06T10:35:39;101387.69;;;16.62
63689;BMP280;54895;40.928;14.480;2023-04-06T10:38:05;101403.81;;;16.47
63689;BMP280;54895;40.928;14.480;2023-04-06T10:40:36;101408.41;;;16.24
63689;BMP280;54895;40.928;14.480;2023-04-06T10:45:35;101395.69;;;15.74
63689;BMP280;54895;40.928;14.480;2023-04-06T10:48:12;101393.56;;;16.23
63689;BMP280;54895;40.928;14.480;2023-04-06T10:50:39;101412.88;;;16.29
63689;BMP280;54895;40.928;14.480;2023-04-06T10:53:06;101414.41;;;16.97
63689;BMP280;54895;40.928;14.480;2023-04-06T10:55:34;101414.22;;;17.25
63689;BMP280;54895;40.928;14.480;2023-04-06T10:58:00;101414.25;;;16.88
63689;BMP280;54895;40.928;14.480;2023-04-06T11:00:26;101420.28;;;17.41
63689;BMP280;54895;40.928;14.480;2023-04-06T11:02:59;101410.47;;;16.76
63689;BMP280;54895;40.928;14.480;2023-04-06T11:05:26;101417.47;;;16.94
63689;BMP280;54895;40.928;14.480;2023-04-06T11:07:52;101416.09;;;17.62
63689;BMP280;54895;40.928;14.480;2023-04-06T11:10:22;101426.59;;;17.83
63689;BMP280;54895;40.928;14.480;2023-04-06T11:12:55;101421.28;;;17.68
63689;BMP280;54895;40.928;14.480;2023-04-06T11:15:21;101429.66;;;18.19
63689;BMP280;54895;40.928;14.480;2023-04-06T11:17:48;101417.47;;;19.08
63689;BMP280;54895;40.928;14.480;2023-04-06T11:20:15;101435.31;;;19.71
63689;BMP280;54895;40.928;14.480;2023-04-06T11:22:51;101431.66;;;18.91
63689;BMP280;54895;40.928;14.480;2023-04-06T11:25:18;101430.28;;;17.48
63689;BMP280;54895;40.928;14.480;2023-04-06T11:27:48;101419.56;;;17.87
63689;BMP280;54895;40.928;14.480;2023-04-06T11:30:14;101405.66;;;17.74
63689;BMP280;54895;40.928;14.480;2023-04-06T11:32:45;101405.13;;;17.75
63689;BMP280;54895;40.928;14.480;2023-04-06T11:35:22;101420.34;;;17.80
63689;BMP280;54895;40.928;14.480;2023-04-06T11:37:49;101418.28;;;18.28
63689;BMP280;54895;40.928;14.480;2023-04-06T11:40:21;101407.91;;;18.49
63689;BMP280;54895;40.928;14.480;2023-04-06T11:42:54;101407.59;;;18.45
63689;BMP280;54895;40.928;14.480;2023-04-06T11:45:21;101397.44;;;18.04
63689;BMP280;54895;40.928;14.480;2023-04-06T11:47:58;101409.63;;;18.61
63689;BMP280;54895;40.928;14.480;2023-04-06T11:50:32;101379.69;;;19.42
63689;BMP280;54895;40.928;14.480;2023-04-06T11:53:00;101386.75;;;19.03
63689;BMP280;54895;40.928;14.480;2023-04-06T11:55:27;101395.25;;;19.00
63689;BMP280;54895;40.928;14.480;2023-04-06T11:57:53;101385.66;;;18.89
63689;BMP280;54895;40.928;14.480;2023-04-06T12:00:20;101391.78;;;17.85
63689;BMP280;54895;40.928;14.480;2023-04-06T12:02:48;101398.22;;;18.46
63689;BMP280;54895;40.928;14.480;2023-04-06T12:05:17;101395.09;;;19.15
63689;BMP280;54895;40.928;14.480;2023-04-06T12:07:43;101378.81;;;19.83
63689;BMP280;54895;40.928;14.480;2023-04-06T12:10:09;101355.59;;;18.76
63689;BMP280;54895;40.928;14.480;2023-04-06T12:12:36;101379.75;;;18.67
63689;BMP280;54895;40.928;14.480;2023-04-06T12:15:02;101374.00;;;19.91
63689;BMP280;54895;40.928;14.480;2023-04-06T12:17:31;101368.41;;;20.51
63689;BMP280;54895;40.928;14.480;2023-04-06T12:19:57;101366.59;;;21.10
63689;BMP280;54895;40.928;14.480;2023-04-06T12:22:24;101366.28;;;20.59
63689;BMP280;54895;40.928;14.480;2023-04-06T12:24:50;101360.44;;;20.08
63689;BMP280;54895;40.928;14.480;2023-04-06T12:27:16;101378.13;;;21.11
63689;BMP280;54895;40.928;14.480;2023-04-06T12:29:43;101369.94;;;18.95
63689;BMP280;54895;40.928;14.480;2023-04-06T12:32:09;101373.72;;;18.59
63689;BMP280;54895;40.928;14.480;2023-04-06T12:34:37;101360.81;;;18.01
63689;BMP280;54895;40.928;14.480;2023-04-06T12:37:03;101362.97;;;17.08
63689;BMP280;54895;40.928;14.480;2023-04-06T12:39:30;101372.00;;;17.50
63689;BMP280;54895;40.928;14.480;2023-04-06T12:41:56;101364.22;;;19.08
63689;BMP280;54895;40.928;14.480;2023-04-06T12:44:23;101364.75;;;19.84
63689;BMP280;54895;40.928;14.480;2023-04-06T12:46:49;101353.28;;;19.23
63689;BMP280;54895;40.928;14.480;2023-04-06T12:49:16;101344.19;;;19.19
63689;BMP280;54895;40.928;14.480;2023-04-06T12:51:44;101356.28;;;19.44
63689;BMP280;54895;40.928;14.480;2023-04-06T12:54:11;101356.38;;;19.63
63689;BMP280;54895;40.928;14.480;2023-04-06T12:56:38;101341.25;;;20.13
63689;BMP280;54895;40.928;14.480;2023-04-06T12:59:04;101356.16;;;19.52
63689;BMP280;54895;40.928;14.480;2023-04-06T13:01:31;101350.56;;;20.39
63689;BMP280;54895;40.928;14.480;2023-04-06T13:03:57;101359.03;;;20.90
63689;BMP280;54895;40.928;14.480;2023-04-06T13:06:25;101350.63;;;21.05
63689;BMP280;54895;40.928;14.480;2023-04-06T13:08:53;101352.66;;;21.54
63689;BMP280;54895;40.928;14.480;2023-04-06T13:11:19;101343.16;;;21.34
63689;BMP280;54895;40.928;14.480;2023-04-06T13:13:47;101346.19;;;21.19
63689;BMP280;54895;40.928;14.480;2023-04-06T13:16:14;101357.31;;;21.23
63689;BMP280;54895;40.928;14.480;2023-04-06T13:18:41;101345.34;;;20.69
63689;BMP280;54895;40.928;14.480;2023-04-06T13:21:07;101340.81;;;20.81
63689;BMP280;54895;40.928;14.480;2023-04-06T13:23:34;101358.03;;;20.95
63689;BMP280;54895;40.928;14.480;2023-04-06T13:26:03;101342.94;;;21.70
63689;BMP280;54895;40.928;14.480;2023-04-06T13:28:30;101340.34;;;22.65
63689;BMP280;54895;40.928;14.480;2023-04-06T13:30:58;101351.25;;;21.93
63689;BMP280;54895;40.928;14.480;2023-04-06T13:33:25;101351.25;;;22.76
63689;BMP280;54895;40.928;14.480;2023-04-06T13:35:52;101348.38;;;22.95
63689;BMP280;54895;40.928;14.480;2023-04-06T13:38:18;101341.50;;;22.62
63689;BMP280;54895;40.928;14.480;2023-04-06T13:40:45;101334.88;;;22.32
63689;BMP280;54895;40.928;14.480;2023-04-06T13:43:11;101323.25;;;22.21
63689;BMP280;54895;40.928;14.480;2023-04-06T13:45:38;101331.13;;;20.59
63689;BMP280;54895;40.928;14.480;2023-04-06T13:48:05;101328.69;;;21.01
63689;BMP280;54895;40.928;14.480;2023-04-06T13:50:32;101342.47;;;21.24
63689;BMP280;54895;40.928;14.480;2023-04-06T13:52:59;101321.78;;;18.75
63689;BMP280;54895;40.928;14.480;2023-04-06T13:55:26;101323.13;;;18.50
63689;BMP280;54895;40.928;14.480;2023-04-06T13:57:52;101326.94;;;19.31
63689;BMP280;54895;40.928;14.480;2023-04-06T14:00:18;101329.38;;;19.37
63689;BMP280;54895;40.928;14.480;2023-04-06T14:02:45;101326.06;;;19.55
63689;BMP280;54895;40.928;14.480;2023-04-06T14:05:11;101329.28;;;19.97